createdAt,value
2019-04-16T00:03:10.228Z,75.15
2019-04-16T00:08:19.321Z,75.43
2019-04-16T00:13:05.274Z,75.72
2019-04-16T00:18:00.878Z,75.81
2019-04-16T00:22:56.702Z,76.86
2019-04-16T00:27:52.615Z,75.62
2019-04-16T00:32:48.965Z,75.91
2019-04-16T00:37:45.721Z,76.01
2019-04-16T00:42:41.146Z,75.62
2019-04-16T00:47:36.660Z,76.44
2019-04-16T00:52:36.695Z,76.35
2019-04-16T00:57:31.933Z,75.87
2019-04-16T01:02:27.702Z,76.35
2019-04-16T01:07:23.980Z,75.96
2019-04-16T01:12:19.842Z,77.20
2019-04-16T01:17:15.486Z,76.73
2019-04-16T01:22:15.809Z,77.58
2019-04-16T01:27:11.495Z,76.44
2019-04-16T01:32:10.327Z,77.58
2019-04-16T01:37:06.675Z,76.73
2019-04-16T01:42:01.875Z,77.30
2019-04-16T01:46:57.801Z,76.44
2019-04-16T01:51:53.749Z,77.01
2019-04-16T01:56:49.378Z,77.07
2019-04-16T02:01:45.509Z,76.97
2019-04-16T02:06:41.809Z,77.17
2019-04-16T02:11:38.850Z,76.97
2019-04-16T02:16:35.906Z,77.36
2019-04-16T02:21:31.261Z,77.26
2019-04-16T02:26:26.958Z,77.55
2019-04-16T02:31:23.003Z,77.45
2019-04-16T02:36:18.961Z,77.17
2019-04-16T02:41:14.659Z,77.26
2019-04-16T02:46:11.400Z,77.26
2019-04-16T02:51:08.547Z,77.07
2019-04-16T02:56:03.850Z,76.69
2019-04-16T03:00:59.612Z,77.26
2019-04-16T03:05:55.477Z,76.88
2019-04-16T03:10:52.181Z,76.40
2019-04-16T03:15:47.608Z,77.36
2019-04-16T03:20:44.166Z,76.88
2019-04-16T03:25:41.344Z,76.59
2019-04-16T03:30:42.444Z,77.26
2019-04-16T03:35:38.174Z,76.69
2019-04-16T03:40:34.085Z,76.78
2019-04-16T03:45:30.811Z,76.97
2019-04-16T03:50:31.021Z,77.07
2019-04-16T03:55:26.557Z,77.22
2019-04-16T04:00:22.869Z,77.12
2019-04-16T04:05:18.209Z,77.79
2019-04-16T04:10:13.853Z,78.17
2019-04-16T04:15:09.510Z,78.64
2019-04-16T04:20:05.348Z,79.12
2019-04-16T04:25:04.347Z,79.79
2019-04-16T04:29:59.626Z,80.26
2019-04-16T04:34:55.592Z,80.55
2019-04-16T04:39:51.385Z,80.83
2019-04-16T04:44:47.355Z,80.60
2019-04-16T04:49:44.073Z,82.31
2019-04-16T04:54:40.412Z,81.45
2019-04-16T04:59:36.881Z,81.84
2019-04-16T05:04:33.848Z,82.03
2019-04-16T05:09:29.678Z,82.59
2019-04-16T05:14:27.363Z,83.07
2019-04-16T05:19:23.361Z,82.78
2019-04-16T05:24:18.923Z,82.12
2019-04-16T05:29:17.365Z,82.12
2019-04-16T05:34:17.193Z,82.21
2019-04-16T05:39:12.701Z,82.07
2019-04-16T05:44:08.553Z,81.68
2019-04-16T05:49:04.327Z,81.59
2019-04-16T05:54:01.245Z,80.83
2019-04-16T05:58:59.665Z,80.26
2019-04-16T06:03:56.145Z,79.88
2019-04-16T06:08:52.271Z,79.06
2019-04-16T06:13:48.352Z,78.88
2019-04-16T06:18:43.888Z,78.59
2019-04-16T06:23:40.323Z,77.20
2019-04-16T06:28:36.675Z,77.20
2019-04-16T06:33:32.606Z,77.58
2019-04-16T06:38:29.575Z,77.01
2019-04-16T06:43:27.253Z,76.63
2019-04-16T06:48:23.052Z,77.01
2019-04-16T06:53:19.874Z,75.96
2019-04-16T06:58:18.748Z,75.15
2019-04-16T07:03:15.680Z,74.29
2019-04-16T07:08:11.378Z,73.44
2019-04-16T07:13:11.168Z,72.81
2019-04-16T07:18:06.308Z,72.62
2019-04-16T07:23:02.057Z,70.81
2019-04-16T07:27:58.992Z,69.99
2019-04-16T07:32:54.758Z,68.69
2019-04-16T07:37:51.138Z,68.30
2019-04-16T07:43:46.966Z,68.50
2019-04-16T07:47:48.323Z,67.93
2019-04-16T07:52:45.942Z,66.53
2019-04-16T07:57:41.932Z,66.44
2019-04-16T08:02:38.928Z,63.45
2019-04-16T08:07:35.795Z,62.05
2019-04-16T08:12:33.673Z,59.44
2019-04-16T08:17:37.005Z,57.53
2019-04-16T08:22:32.526Z,58.29
2019-04-16T08:27:29.748Z,56.95
2019-04-16T08:32:26.045Z,58.10
2019-04-16T08:37:21.424Z,57.53
2019-04-16T08:42:16.857Z,57.90
2019-04-16T08:47:14.541Z,57.53
2019-04-16T08:52:11.040Z,59.12
2019-04-16T08:57:05.969Z,60.84
2019-04-16T09:02:01.292Z,59.44
2019-04-16T09:07:10.243Z,60.20
2019-04-16T09:11:56.859Z,58.10
2019-04-16T09:16:52.564Z,58.67
2019-04-16T09:21:48.686Z,59.31
2019-04-16T09:26:44.432Z,59.12
2019-04-16T09:31:40.423Z,59.44
2019-04-16T09:36:36.299Z,58.10
2019-04-16T09:41:32.267Z,58.00
2019-04-16T09:46:49.865Z,58.61
2019-04-16T09:51:28.633Z,58.51
2019-04-16T09:56:28.980Z,58.06
2019-04-16T10:01:24.173Z,57.10
2019-04-16T10:06:20.375Z,55.10
2019-04-16T10:11:19.255Z,55.63
2019-04-16T10:16:15.979Z,54.67
2019-04-16T10:21:12.925Z,52.97
2019-04-16T10:26:10.838Z,52.42
2019-04-16T10:31:07.285Z,52.33
2019-04-16T10:36:04.912Z,52.42
2019-04-16T10:41:01.085Z,52.91
2019-04-16T10:45:58.003Z,52.71
2019-04-16T10:50:53.836Z,53.38
2019-04-16T10:55:50.984Z,51.68
2019-04-16T11:00:47.246Z,52.81
2019-04-16T11:05:43.214Z,53.15
2019-04-16T11:10:39.801Z,51.01
2019-04-16T11:15:37.099Z,50.82
2019-04-16T11:20:34.288Z,50.46
2019-04-16T11:25:30.121Z,49.88
2019-04-16T11:30:27.489Z,49.21
2019-04-16T11:35:23.417Z,48.93
2019-04-16T11:40:20.045Z,48.38
2019-04-16T11:45:16.479Z,48.83
2019-04-16T11:50:12.695Z,48.57
2019-04-16T11:55:09.082Z,46.96
2019-04-16T12:00:07.812Z,48.18
2019-04-16T12:05:04.495Z,46.67
2019-04-16T12:09:59.744Z,47.36
2019-04-16T12:14:54.870Z,47.72
2019-04-16T12:19:49.769Z,48.30
2019-04-16T12:24:45.752Z,47.71
2019-04-16T12:29:42.554Z,48.11
2019-04-16T12:34:39.108Z,48.11
2019-04-16T12:39:36.048Z,48.40
2019-04-16T12:44:44.444Z,46.50
2019-04-16T12:49:32.023Z,42.16
2019-04-16T12:54:28.459Z,42.54
2019-04-16T12:59:23.982Z,43.02
2019-04-16T13:04:19.203Z,43.62
2019-04-16T13:09:16.287Z,42.73
2019-04-16T13:14:12.788Z,43.70
2019-04-16T13:19:09.239Z,42.37
2019-04-16T13:24:04.461Z,42.08
2019-04-16T13:29:00.645Z,41.79
2019-04-16T13:33:56.466Z,41.79
2019-04-16T13:38:52.240Z,41.79
2019-04-16T13:43:48.265Z,42.56
2019-04-16T13:48:44.025Z,42.66
2019-04-16T13:53:39.826Z,42.83
2019-04-16T13:58:35.579Z,42.85
2019-04-16T14:03:31.607Z,43.71
2019-04-16T14:08:28.794Z,42.49
2019-04-16T14:13:25.337Z,42.97
2019-04-16T14:18:22.592Z,43.26
2019-04-16T14:23:18.390Z,42.87
2019-04-16T14:28:17.894Z,44.00
2019-04-16T14:33:13.024Z,45.64
2019-04-16T14:38:08.759Z,43.71
2019-04-16T14:43:06.290Z,46.21
2019-04-16T14:48:08.003Z,47.46
2019-04-16T14:53:01.069Z,45.83
2019-04-16T14:57:56.742Z,46.50
2019-04-16T15:02:52.239Z,46.89
2019-04-16T15:07:47.925Z,48.33
2019-04-16T15:12:44.154Z,47.27
2019-04-16T15:17:40.727Z,47.34
2019-04-16T15:22:37.271Z,48.11
2019-04-16T15:27:32.679Z,48.49
2019-04-16T15:32:28.399Z,48.97
2019-04-16T15:37:25.648Z,48.97
2019-04-16T15:42:21.967Z,48.59
2019-04-16T15:47:18.740Z,48.30
2019-04-16T15:52:15.408Z,49.36
2019-04-16T15:57:10.828Z,49.26
2019-04-16T16:02:06.968Z,48.88
2019-04-16T16:07:02.796Z,48.88
2019-04-16T16:11:58.759Z,48.69
2019-04-16T16:16:54.620Z,48.59
2019-04-16T16:21:51.433Z,48.97
2019-04-16T16:26:46.902Z,48.49
2019-04-16T16:31:42.662Z,48.59
2019-04-16T16:36:40.688Z,48.79
2019-04-16T16:41:36.086Z,49.33
2019-04-16T16:46:31.888Z,48.88
2019-04-16T16:51:28.687Z,48.57
2019-04-16T16:56:25.954Z,49.15
2019-04-16T17:01:21.305Z,49.52
2019-04-16T17:06:17.708Z,49.91
2019-04-16T17:11:16.592Z,50.29
2019-04-16T17:16:14.457Z,50.29
2019-04-16T17:21:09.729Z,51.81
2019-04-16T17:26:05.550Z,50.65
2019-04-16T17:31:01.321Z,51.04
2019-04-16T17:35:57.985Z,51.61
2019-04-16T17:40:58.123Z,51.01
2019-04-16T17:45:52.527Z,51.40
2019-04-16T17:50:51.419Z,51.87
2019-04-16T17:55:47.779Z,51.68
2019-04-16T18:00:43.978Z,51.49
2019-04-16T18:05:39.393Z,51.59
2019-04-16T18:10:35.190Z,51.95
2019-04-16T18:15:31.053Z,52.81
2019-04-16T18:20:26.636Z,52.62
2019-04-16T18:25:22.613Z,52.91
2019-04-16T18:30:18.275Z,53.09
2019-04-16T18:35:16.426Z,53.36
2019-04-16T18:40:11.859Z,53.64
2019-04-16T18:45:07.671Z,53.62
2019-04-16T18:50:03.938Z,54.99
2019-04-16T18:54:59.695Z,55.05
2019-04-16T18:59:55.151Z,54.96
2019-04-16T19:04:51.150Z,54.67
2019-04-16T19:09:47.437Z,55.24
2019-04-16T19:14:46.998Z,55.60
2019-04-16T19:19:44.810Z,55.02
2019-04-16T19:24:40.035Z,55.02
2019-04-16T19:29:36.698Z,55.98
2019-04-16T19:34:32.203Z,56.75
2019-04-16T19:39:29.009Z,57.23
2019-04-16T19:44:24.442Z,56.82
2019-04-16T19:49:20.198Z,57.48
2019-04-16T19:54:17.263Z,57.77
2019-04-16T19:59:12.770Z,58.15
2019-04-16T20:04:10.739Z,58.06
2019-04-16T20:09:06.293Z,59.01
2019-04-16T20:14:03.510Z,59.56
2019-04-16T20:19:00.311Z,60.42
2019-04-16T20:23:55.645Z,60.90
2019-04-16T20:28:51.598Z,61.47
2019-04-16T20:33:47.363Z,61.92
2019-04-16T20:38:44.478Z,62.40
2019-04-16T20:43:39.887Z,63.07
2019-04-16T20:48:35.536Z,63.83
2019-04-16T20:53:31.337Z,64.31
2019-04-16T20:58:30.658Z,65.23
2019-04-16T21:03:30.804Z,67.62
2019-04-16T21:08:26.707Z,66.85
2019-04-16T21:13:22.166Z,66.85
2019-04-16T21:18:19.031Z,70.29
2019-04-16T21:23:16.211Z,70.10
2019-04-16T21:28:11.818Z,68.06
2019-04-16T21:33:07.552Z,68.96
2019-04-16T21:38:03.966Z,69.11
2019-04-16T21:42:59.808Z,69.02
2019-04-16T21:47:57.056Z,69.78
2019-04-16T21:52:55.575Z,68.92
2019-04-16T21:57:52.186Z,69.87
2019-04-16T22:02:47.582Z,70.13
2019-04-16T22:07:44.000Z,70.89
2019-04-16T22:12:39.611Z,72.32
2019-04-16T22:17:36.673Z,73.08
2019-04-16T22:22:32.758Z,71.41
2019-04-16T22:27:28.623Z,72.64
2019-04-16T22:32:27.072Z,73.98
2019-04-16T22:37:24.274Z,73.22
2019-04-16T22:42:20.450Z,73.47
2019-04-16T22:47:16.204Z,72.32
2019-04-16T22:52:13.200Z,72.71
2019-04-16T22:57:08.782Z,72.99
2019-04-16T23:02:04.750Z,74.61
2019-04-16T23:07:00.253Z,74.10
2019-04-16T23:11:57.928Z,76.39
2019-04-16T23:16:54.103Z,75.24
2019-04-16T23:21:51.071Z,76.39
2019-04-16T23:26:46.583Z,76.77
2019-04-16T23:31:42.272Z,74.48
2019-04-16T23:36:38.027Z,74.29
2019-04-16T23:41:34.562Z,74.38
2019-04-16T23:46:31.317Z,77.25
2019-04-16T23:51:29.122Z,74.77
2019-04-16T23:56:24.509Z,74.63
